Patricia Ann — WDE2845 — position and weather

sailwx.info

Track history (hours):
 
Tides and Currents Weather Stations Pressure Air Temp Water Temp Dewpoint Dewpoint Depression Visibility Wind Speed Wind Dir Waves Ship Positions

Patricia Ann

Owner: AmNav Maritime Services, Oakland, CA. More information available from US FCC via Universal Licensing System and Coast Guard Vessel Documentation Center.

Last reported at 2017-May-23 12:30 UTC. Time now 2017-May-23 12:46 UTC.
Position N 37°48' W 122°21'.

Length 24 m; draft 4.9 m.

Type: Tug. MMSI: 367330510.

Date/timePositionNaut miles runAvg speedWind from/ knotsBaromVisibWave heightAir tempDewpointWater temp
2017-May-23 12:30N 37°48' W 122°21'2 4.1
2017-May-23 12:00N 37°48' W 122°19'0 0.1
2017-May-23 11:30N 37°48' W 122°19'0 0.5
2017-May-23 11:00N 37°48' W 122°19'1 1.6
2017-May-23 10:30N 37°48' W 122°18'0 0.1
2017-May-23 10:01N 37°48' W 122°18'0 0.0
2017-May-23 09:30N 37°48' W 122°18'0 0.1
2017-May-23 09:00N 37°48' W 122°18'0 0.0
2017-May-23 08:30N 37°48' W 122°18'2 3.9
2017-May-23 08:00N 37°49' W 122°20'1 2.1
2017-May-23 07:30N 37°49' W 122°19'0 0.0
2017-May-23 07:00N 37°49' W 122°19'0 0.0
2017-May-23 06:30N 37°49' W 122°19'0 0.0
2017-May-23 06:00N 37°49' W 122°19'0 0.0
2017-May-23 05:30N 37°49' W 122°19'0 0.0
2017-May-23 05:00N 37°49' W 122°19'0 0.0
2017-May-23 04:30N 37°49' W 122°19'0 0.0
2017-May-23 04:00N 37°49' W 122°19'0 0.0
2017-May-23 03:30N 37°49' W 122°19'0 0.0
2017-May-23 03:00N 37°49' W 122°19'0 0.0
2017-May-23 02:30N 37°49' W 122°19'0 0.0
2017-May-23 02:00N 37°49' W 122°19'0 0.0
2017-May-23 01:30N 37°49' W 122°19'0 0.0
2017-May-23 01:00N 37°49' W 122°19'1 1.1
2017-May-23 00:30N 37°49' W 122°19'1 2.6
2017-May-23 00:00N 37°48' W 122°19'0 0.2
2017-May-22 23:29N 37°48' W 122°19'1 2.3
2017-May-22 23:00N 37°48' W 122°17'2 3.6
2017-May-22 22:30N 37°48' W 122°20'2 4.6
2017-May-22 22:00N 37°48' W 122°22'3 6.1
2017-May-22 21:30N 37°49' W 122°19'0 0.0
2017-May-22 21:00N 37°49' W 122°19'0 0.0
2017-May-22 20:30N 37°49' W 122°19'0 0.0
2017-May-22 20:00N 37°49' W 122°19'0 0.0
2017-May-22 19:30N 37°49' W 122°19'0 0.0
2017-May-22 19:00N 37°49' W 122°19'0 0.4
2017-May-22 18:30N 37°49' W 122°19'3 6.6
2017-May-22 18:00N 37°51' W 122°23'4 8.6
2017-May-22 17:29N 37°55' W 122°25'1 0.7
2017-May-22 16:28N 37°55' W 122°25'2 4.6
2017-May-22 16:00N 37°53' W 122°25'4 7.5
2017-May-22 15:30N 37°50' W 122°22'2 4.9
2017-May-22 15:00N 37°48' W 122°21'0 0.0
2017-May-22 14:00N 37°48' W 122°21'0 0.0
2017-May-22 13:30N 37°48' W 122°21'0 0.5
2017-May-22 13:00N 37°49' W 122°20'1 1.5
2017-May-22 12:30N 37°49' W 122°19'2 3.9
2017-May-22 12:00N 37°48' W 122°22'3 5.0
2017-May-22 11:30N 37°49' W 122°19'0 0.3
2017-May-22 11:00N 37°49' W 122°19'0 0.0
2017-May-22 10:30N 37°49' W 122°19'0 0.0
2017-May-22 10:00N 37°49' W 122°19'0 0.0
2017-May-22 09:30N 37°49' W 122°19'0 0.0
2017-May-22 09:00N 37°49' W 122°19'0 0.0
2017-May-22 08:30N 37°49' W 122°19'0 0.0
2017-May-22 08:00N 37°49' W 122°19'0 0.0
2017-May-22 07:30N 37°49' W 122°19'0 0.0
2017-May-22 07:00N 37°49' W 122°19'0 0.0
2017-May-22 06:30N 37°49' W 122°19'0 0.0
2017-May-22 06:00N 37°49' W 122°19'0 0.0
2017-May-22 05:30N 37°49' W 122°19'0 0.0
2017-May-22 05:00N 37°49' W 122°19'0 0.0
2017-May-22 04:30N 37°49' W 122°19'0 0.0
2017-May-22 04:00N 37°49' W 122°19'0 0.0
2017-May-22 03:30N 37°49' W 122°19'0 0.0
2017-May-22 03:00N 37°49' W 122°19'0 0.0
2017-May-22 02:30N 37°49' W 122°19'0 0.0
2017-May-22 02:00N 37°49' W 122°19'0 0.0
2017-May-22 01:30N 37°49' W 122°19'0 0.0
2017-May-22 01:00N 37°49' W 122°19'0 0.0
2017-May-22 00:30N 37°49' W 122°19'0 0.0
2017-May-22 00:00N 37°49' W 122°19'0 0.0
2017-May-21 23:30N 37°49' W 122°19'0 0.0
2017-May-21 23:00N 37°49' W 122°19'0 0.0
2017-May-21 22:30N 37°49' W 122°19'0 0.0
2017-May-21 22:00N 37°49' W 122°19'0 0.0
2017-May-21 21:30N 37°49' W 122°19'0 0.0
2017-May-21 21:00N 37°49' W 122°19'0 0.0
2017-May-21 20:30N 37°49' W 122°19'0 0.0
2017-May-21 20:00N 37°49' W 122°19'0 0.0
2017-May-21 19:30N 37°49' W 122°19'0 0.0
2017-May-21 19:00N 37°49' W 122°19'0 0.0
2017-May-21 18:30N 37°49' W 122°19'0 0.0
2017-May-21 18:00N 37°49' W 122°19'0 0.0
2017-May-21 17:30N 37°49' W 122°19'0 0.0
2017-May-21 17:00N 37°49' W 122°19'0 0.0
2017-May-21 16:30N 37°49' W 122°19'0 0.0
2017-May-21 16:00N 37°49' W 122°19'0 0.0
2017-May-21 15:30N 37°49' W 122°19'0 0.0
2017-May-21 15:00N 37°49' W 122°19'0 0.0
2017-May-21 14:30N 37°49' W 122°19'0 0.0
2017-May-21 13:30N 37°49' W 122°19'0 0.0
2017-May-21 13:00N 37°49' W 122°19'0 0.0
2017-May-21 12:30N 37°49' W 122°19'0 0.0
2017-May-21 12:00N 37°49' W 122°19'0 0.0
2017-May-21 11:30N 37°49' W 122°19'0 0.7
2017-May-21 11:00N 37°49' W 122°19'2 3.1
2017-May-21 10:30N 37°48' W 122°19'1 1.9
2017-May-21 10:00N 37°48' W 122°17'1 2.2
2017-May-21 09:30N 37°48' W 122°19'0 0.0
2017-May-21 09:00N 37°48' W 122°19'0 0.0
2017-May-21 08:30N 37°48' W 122°19'2 3.3
2017-May-21 08:00N 37°49' W 122°19'0 0.0
2017-May-21 07:30N 37°49' W 122°19'0 0.0
2017-May-21 07:00N 37°49' W 122°19'0 0.0
2017-May-21 06:30N 37°49' W 122°19'0 0.0
2017-May-21 06:00N 37°49' W 122°19'0 0.0
2017-May-21 05:30N 37°49' W 122°19'0 0.0
2017-May-21 05:00N 37°49' W 122°19'0 0.0
2017-May-21 04:30N 37°49' W 122°19'0 0.0
2017-May-21 04:00N 37°49' W 122°19'0 0.0
2017-May-21 03:30N 37°49' W 122°19'0 0.0
2017-May-21 03:00N 37°49' W 122°19'4 7.5
2017-May-21 02:30N 37°51' W 122°23'5 9.2
2017-May-21 02:00N 37°55' W 122°25'3 4.7
2017-May-21 01:27N 37°58' W 122°26'511.1
2017-May-21 01:00N 37°53' W 122°25'5 9.2
2017-May-21 00:30N 37°49' W 122°21'2 4.3
2017-May-21 00:00N 37°49' W 122°19'0 0.0
2017-May-20 23:30N 37°49' W 122°19'0 0.0
2017-May-20 23:00N 37°49' W 122°19'0 0.0
2017-May-20 22:30N 37°49' W 122°19'0 0.0
2017-May-20 22:00N 37°49' W 122°19'0 0.0
2017-May-20 21:30N 37°49' W 122°19'0 0.0
2017-May-20 21:00N 37°49' W 122°19'0 0.0
2017-May-20 20:30N 37°49' W 122°19'0 0.0
2017-May-20 20:00N 37°49' W 122°19'0 0.0
2017-May-20 19:30N 37°49' W 122°19'0 0.0
2017-May-20 19:00N 37°49' W 122°19'0 0.0
2017-May-20 18:30N 37°49' W 122°19'0 0.0
2017-May-20 18:00N 37°49' W 122°19'0 0.0
2017-May-20 17:30N 37°49' W 122°19'0 0.0
2017-May-20 17:00N 37°49' W 122°19'2 3.2
2017-May-20 16:30N 37°48' W 122°20'0 1.0
2017-May-20 16:00N 37°48' W 122°19'1 1.2
2017-May-20 15:31N 37°48' W 122°18'1 1.4
2017-May-20 15:00N 37°48' W 122°17'1 2.5
2017-May-20 14:30N 37°48' W 122°19'0 0.2
2017-May-20 13:30N 37°48' W 122°19'2 4.5
2017-May-20 13:00N 37°48' W 122°21'1 1.4
2017-May-20 12:30N 37°48' W 122°21'1 1.7
2017-May-20 12:00N 37°49' W 122°20'0 0.1
2017-May-20 11:30N 37°49' W 122°20'0 0.0
2017-May-20 11:00N 37°49' W 122°20'0 0.0
2017-May-20 10:30N 37°49' W 122°20'0 0.0
2017-May-20 10:00N 37°49' W 122°20'0 0.8
2017-May-20 09:30N 37°49' W 122°19'1 1.2
2017-May-20 09:00N 37°49' W 122°19'0 0.0
2017-May-20 08:30N 37°49' W 122°19'0 0.0
2017-May-20 08:00N 37°49' W 122°19'0 0.0
2017-May-20 07:30N 37°49' W 122°19'0 0.0
2017-May-20 07:00N 37°49' W 122°19'0 0.0
2017-May-20 06:30N 37°49' W 122°19'0 0.0
2017-May-20 06:00N 37°49' W 122°19'0 0.0
2017-May-20 05:30N 37°49' W 122°19'0 0.0
2017-May-20 05:00N 37°49' W 122°19'0 0.0
2017-May-20 04:30N 37°49' W 122°19'0 0.0
2017-May-20 04:00N 37°49' W 122°19'0 0.0
2017-May-20 03:30N 37°49' W 122°19'0 0.0
2017-May-20 03:00N 37°49' W 122°19'2 3.2
2017-May-20 02:30N 37°48' W 122°19'0 0.6
2017-May-20 02:00N 37°48' W 122°19'1 2.5
2017-May-20 01:31N 37°48' W 122°17'1 1.9
2017-May-20 01:00N 37°48' W 122°18'0 0.9
2017-May-20 00:30N 37°48' W 122°19'0 0.1
2017-May-20 00:01N 37°48' W 122°19'2 3.1
2017-May-19 23:30N 37°49' W 122°19'0 0.0
2017-May-19 23:01N 37°49' W 122°19'0 0.0
2017-May-19 22:30N 37°49' W 122°19'0 0.0
2017-May-19 22:00N 37°49' W 122°19'0 0.0
2017-May-19 21:30N 37°49' W 122°19'0 0.0
2017-May-19 21:00N 37°49' W 122°19'0 0.0
2017-May-19 20:30N 37°49' W 122°19'0 0.0
2017-May-19 20:00N 37°49' W 122°19'0 0.0
2017-May-19 19:31N 37°49' W 122°19'2 3.3
2017-May-19 19:01N 37°48' W 122°19'1 1.5
2017-May-19 18:31N 37°48' W 122°18'0 0.0
2017-May-19 18:01N 37°48' W 122°18'0 0.0
2017-May-19 17:31N 37°48' W 122°18'0 0.1
2017-May-19 17:00N 37°48' W 122°18'0 0.0
2017-May-19 16:30N 37°48' W 122°18'1 3.0
2017-May-19 16:00N 37°48' W 122°20'1 1.8
2017-May-19 15:30N 37°49' W 122°19'0 0.2
2017-May-19 15:00N 37°49' W 122°19'0 0.0
2017-May-19 14:00N 37°49' W 122°19'0 0.5
2017-May-19 13:30N 37°49' W 122°20'0 0.4
2017-May-19 13:00N 37°49' W 122°20'1 2.8
2017-May-19 12:30N 37°48' W 122°21'2 5.0
2017-May-19 12:00N 37°49' W 122°19'0 0.0
2017-May-19 11:30N 37°49' W 122°19'0 0.0
2017-May-19 11:00N 37°49' W 122°19'0 0.0
2017-May-19 10:30N 37°49' W 122°19'0 0.0
2017-May-19 10:00N 37°49' W 122°19'0 0.0
2017-May-19 09:30N 37°49' W 122°19'0 0.0
2017-May-19 09:00N 37°49' W 122°19'0 0.0
2017-May-19 08:30N 37°49' W 122°19'0 0.0
2017-May-19 08:00N 37°49' W 122°19'0 0.0
2017-May-19 07:30N 37°49' W 122°19'0 0.0
2017-May-19 07:00N 37°49' W 122°19'0 0.0
2017-May-19 06:30N 37°49' W 122°19'0 0.0
2017-May-19 06:00N 37°49' W 122°19'0 0.0
2017-May-19 05:30N 37°49' W 122°19'0 0.0
2017-May-19 05:00N 37°49' W 122°19'0 0.0
2017-May-19 04:30N 37°49' W 122°19'0 0.0
2017-May-19 04:00N 37°49' W 122°19'0 0.0
2017-May-19 03:30N 37°49' W 122°19'0 0.0
2017-May-19 03:00N 37°49' W 122°19'0 0.0
2017-May-19 02:30N 37°49' W 122°19'0 0.0
2017-May-19 02:00N 37°49' W 122°19'0 0.0
2017-May-19 01:30N 37°49' W 122°19'0 0.0
2017-May-19 01:00N 37°49' W 122°19'0 0.0
2017-May-19 00:30N 37°49' W 122°19'0 0.0
2017-May-19 00:00N 37°49' W 122°19'2 3.4
2017-May-18 23:30N 37°48' W 122°21'2 3.6
2017-May-18 23:00N 37°48' W 122°18'1 2.0
2017-May-18 22:31N 37°48' W 122°17'1 2.8
2017-May-18 22:00N 37°48' W 122°19'3 5.6
2017-May-18 21:30N 37°48' W 122°22'2 3.4
2017-May-18 21:00N 37°48' W 122°20'1 2.1
2017-May-18 20:30N 37°48' W 122°19'1 3.0
2017-May-18 20:00N 37°48' W 122°21'0 0.4
2017-May-18 19:31N 37°48' W 122°21'0 1.0
2017-May-18 19:00N 37°48' W 122°21'0 0.0
2017-May-18 18:31N 37°48' W 122°21'0 0.0
2017-May-18 18:01N 37°48' W 122°21'0 0.0
2017-May-18 17:30N 37°48' W 122°21'0 0.0
2017-May-18 17:01N 37°48' W 122°21'0 0.1
2017-May-18 16:31N 37°48' W 122°21'3 5.3
2017-May-18 16:01N 37°48' W 122°17'1 2.0
2017-May-18 15:31N 37°48' W 122°19'0 0.2
2017-May-18 15:01N 37°48' W 122°19'1 1.0
2017-May-18 14:01N 37°48' W 122°20'1 1.5
2017-May-18 13:30N 37°49' W 122°20'0 0.5
2017-May-18 13:00N 37°49' W 122°20'2 3.7
2017-May-18 12:31N 37°48' W 122°22'3 5.7
2017-May-18 12:01N 37°49' W 122°19'0 0.0
2017-May-18 11:30N 37°49' W 122°19'0 0.0
2017-May-18 11:00N 37°49' W 122°19'0 0.0
2017-May-18 10:30N 37°49' W 122°19'0 0.0
2017-May-18 10:01N 37°49' W 122°19'0 0.0
2017-May-18 09:31N 37°49' W 122°19'0 0.0
2017-May-18 09:01N 37°49' W 122°19'0 0.0
2017-May-18 08:31N 37°49' W 122°19'0 0.0
2017-May-18 08:01N 37°49' W 122°19'0 0.0
2017-May-18 07:31N 37°49' W 122°19'0 0.0
2017-May-18 07:01N 37°49' W 122°19'0 0.0
2017-May-18 06:31N 37°49' W 122°19'0 0.0
2017-May-18 06:00N 37°49' W 122°19'0 0.0
2017-May-18 05:31N 37°49' W 122°19'0 0.0
2017-May-18 05:00N 37°49' W 122°19'0 0.0
2017-May-18 04:31N 37°49' W 122°19'0 0.0
2017-May-18 04:01N 37°49' W 122°19'0 0.0
2017-May-18 03:31N 37°49' W 122°19'0 0.0
2017-May-18 03:01N 37°49' W 122°19'0 0.0
2017-May-18 02:30N 37°49' W 122°19'0 0.0
2017-May-18 02:00N 37°49' W 122°19'0 0.0
2017-May-18 01:31N 37°49' W 122°19'2 3.3
2017-May-18 01:01N 37°48' W 122°19'0 0.2
2017-May-18 00:31N 37°48' W 122°19'4 7.5
2017-May-18 00:01N 37°45' W 122°22'0 0.8
2017-May-17 23:31N 37°45' W 122°22'1 2.0
2017-May-17 23:00N 37°46' W 122°22'2 3.8
2017-May-17 22:31N 37°47' W 122°22'3 5.8
2017-May-17 22:00N 37°49' W 122°19'0 0.0
2017-May-17 21:31N 37°49' W 122°19'0 0.0
2017-May-17 21:01N 37°49' W 122°19'0 0.0
2017-May-17 20:31N 37°49' W 122°19'0 0.0
2017-May-17 20:00N 37°49' W 122°19'0 0.0
2017-May-17 19:30N 37°49' W 122°19'0 0.0
2017-May-17 19:01N 37°49' W 122°19'0 0.0
2017-May-17 18:30N 37°49' W 122°19'2 3.6
2017-May-17 18:00N 37°48' W 122°20'1 2.0
2017-May-17 17:31N 37°48' W 122°19'2 3.1
2017-May-17 17:01N 37°48' W 122°17'2 3.3
2017-May-17 16:30N 37°48' W 122°19'2 4.4
2017-May-17 16:01N 37°48' W 122°22'1 2.4
2017-May-17 15:30N 37°48' W 122°21'0 0.0
2017-May-17 15:01N 37°48' W 122°21'1 0.7
2017-May-17 14:00N 37°48' W 122°20'2 3.0
2017-May-17 13:31N 37°48' W 122°18'0 0.8
2017-May-17 13:00N 37°48' W 122°18'3 5.7
2017-May-17 12:31N 37°48' W 122°22'0 0.0
2017-May-17 12:01N 37°48' W 122°22'0 0.4
2017-May-17 11:31N 37°48' W 122°22'3 5.3
2017-May-17 11:01N 37°49' W 122°19'0 0.0
2017-May-17 10:31N 37°49' W 122°19'0 0.0
2017-May-17 10:00N 37°49' W 122°19'0 0.0
2017-May-17 09:31N 37°49' W 122°19'0 0.0
2017-May-17 09:01N 37°49' W 122°19'0 0.0
2017-May-17 08:31N 37°49' W 122°19'0 0.0
2017-May-17 08:01N 37°49' W 122°19'0 0.0
2017-May-17 07:30N 37°49' W 122°19'0 0.0
2017-May-17 07:01N 37°49' W 122°19'0 0.0
2017-May-17 06:31N 37°49' W 122°19'0 0.0
2017-May-17 06:00N 37°49' W 122°19'0 0.0
2017-May-17 05:30N 37°49' W 122°19'0 0.0
2017-May-17 05:01N 37°49' W 122°19'0 0.0
2017-May-17 04:30N 37°49' W 122°19'0 0.0
2017-May-17 04:00N 37°49' W 122°19'0 0.0
2017-May-17 03:30N 37°49' W 122°19'0 0.0
2017-May-17 03:00N 37°49' W 122°19'0 0.0
2017-May-17 02:30N 37°49' W 122°19'0 0.0
2017-May-17 02:00N 37°49' W 122°19'0 0.2
2017-May-17 01:31N 37°49' W 122°19'1 3.0
2017-May-17 01:00N 37°48' W 122°19'1 1.4
2017-May-17 00:30N 37°48' W 122°18'1 1.7
2017-May-17 00:00N 37°48' W 122°17'1 1.2
2017-May-16 23:31N 37°48' W 122°18'3 5.6
2017-May-16 23:01N 37°48' W 122°21'2 4.5
2017-May-16 22:30N 37°49' W 122°19'0 0.0
2017-May-16 22:00N 37°49' W 122°19'0 0.4
2017-May-16 21:30N 37°49' W 122°19'0 0.0
2017-May-16 21:00N 37°49' W 122°19'0 0.0
2017-May-16 20:30N 37°49' W 122°19'0 0.0
2017-May-16 20:00N 37°49' W 122°19'0 0.0
2017-May-16 19:30N 37°49' W 122°19'0 0.0
2017-May-16 19:00N 37°49' W 122°19'0 0.0
2017-May-16 18:30N 37°49' W 122°19'0 0.0
2017-May-16 18:00N 37°49' W 122°19'0 0.0
2017-May-16 17:30N 37°49' W 122°19'0 0.0
2017-May-16 17:00N 37°49' W 122°19'3 5.4
2017-May-16 16:30N 37°47' W 122°21'3 5.4
2017-May-16 16:00N 37°45' W 122°23'1 2.0
2017-May-16 15:31N 37°46' W 122°22'1 2.4
2017-May-16 15:00N 37°47' W 122°22'2 4.2
2017-May-16 14:30N 37°49' W 122°20'0 0.0
2017-May-16 13:30N 37°49' W 122°20'0 0.0
2017-May-16 13:00N 37°49' W 122°20'0 0.0
2017-May-16 12:30N 37°49' W 122°20'0 0.0
2017-May-16 12:00N 37°49' W 122°20'0 0.0
2017-May-16 11:30N 37°49' W 122°20'0 0.0
2017-May-16 11:00N 37°49' W 122°20'1 1.2
2017-May-16 10:30N 37°48' W 122°20'2 3.7
2017-May-16 10:00N 37°48' W 122°18'0 0.2
2017-May-16 09:30N 37°48' W 122°18'0 0.0
2017-May-16 09:01N 37°48' W 122°18'2 3.6
2017-May-16 08:31N 37°49' W 122°19'1 1.4
2017-May-16 08:00N 37°49' W 122°19'0 0.0
2017-May-16 07:30N 37°49' W 122°19'0 0.0
2017-May-16 07:00N 37°49' W 122°19'0 0.0
2017-May-16 06:30N 37°49' W 122°19'0 0.0
2017-May-16 06:00N 37°49' W 122°19'0 0.0
2017-May-16 05:30N 37°49' W 122°19'0 0.0
2017-May-16 05:00N 37°49' W 122°19'0 0.0
2017-May-16 04:30N 37°49' W 122°19'0 0.0
2017-May-16 04:00N 37°49' W 122°19'0 0.0
2017-May-16 03:30N 37°49' W 122°19'0 0.0
2017-May-16 03:00N 37°49' W 122°19'0 0.0
2017-May-16 02:30N 37°49' W 122°19'0 0.0
2017-May-16 02:00N 37°49' W 122°19'0 0.0
2017-May-16 01:30N 37°49' W 122°19'0 0.0
2017-May-16 01:00N 37°49' W 122°19'0 0.0
2017-May-16 00:30N 37°49' W 122°19'1 1.9
2017-May-16 00:00N 37°49' W 122°20'0 0.2
2017-May-15 23:30N 37°49' W 122°20'0 0.2
2017-May-15 23:00N 37°49' W 122°20'1 1.2
2017-May-15 22:30N 37°49' W 122°19'0 0.6
2017-May-15 22:00N 37°49' W 122°19'0 0.0
2017-May-15 21:30N 37°49' W 122°19'0 0.0
2017-May-15 21:00N 37°49' W 122°19'0 0.0
2017-May-15 20:30N 37°49' W 122°19'2 3.9
2017-May-15 20:00N 37°48' W 122°21'5 9.0
2017-May-15 19:30N 37°44' W 122°20'1 1.8
2017-May-15 19:00N 37°43' W 122°21'5 9.9
2017-May-15 18:30N 37°48' W 122°23'4 9.0
2017-May-15 18:00N 37°49' W 122°29'1 2.0
2017-May-15 17:30N 37°48' W 122°30'0 0.5
2017-May-15 17:00N 37°48' W 122°29'4 7.5
2017-May-15 16:30N 37°49' W 122°25'5 9.3
2017-May-15 16:00N 37°49' W 122°19'0 0.0
2017-May-15 15:30N 37°49' W 122°19'0 0.0
2017-May-15 15:00N 37°49' W 122°19'2 1.6
2017-May-15 14:00N 37°48' W 122°19'1 1.3
2017-May-15 13:30N 37°48' W 122°18'1 1.8
2017-May-15 13:00N 37°48' W 122°17'1 2.8
2017-May-15 12:31N 37°48' W 122°19'2 3.5
2017-May-15 12:01N 37°48' W 122°21'1 1.0
2017-May-15 11:30N 37°48' W 122°21'0 0.0
2017-May-15 11:00N 37°48' W 122°21'0 0.0
2017-May-15 10:30N 37°48' W 122°21'0 0.0
2017-May-15 10:00N 37°48' W 122°21'0 0.0
2017-May-15 09:30N 37°48' W 122°21'0 0.0
2017-May-15 09:00N 37°48' W 122°21'0 0.0
2017-May-15 08:30N 37°48' W 122°21'0 0.0
2017-May-15 08:00N 37°48' W 122°21'0 0.0
2017-May-15 07:30N 37°48' W 122°21'0 0.0
2017-May-15 07:00N 37°48' W 122°21'0 0.0
2017-May-15 06:30N 37°48' W 122°21'0 0.0
2017-May-15 06:00N 37°48' W 122°21'0 0.0
2017-May-15 05:30N 37°48' W 122°21'0 0.0
2017-May-15 05:00N 37°48' W 122°21'0 0.0
2017-May-15 04:30N 37°48' W 122°21'0 0.0
2017-May-15 04:00N 37°48' W 122°21'4 8.5
2017-May-15 03:30N 37°52' W 122°24'3 5.3
2017-May-15 03:00N 37°54' W 122°23'1 1.8
2017-May-15 02:30N 37°55' W 122°22'0 0.4
2017-May-15 01:57N 37°55' W 122°22'0 0.6
2017-May-15 01:29N 37°55' W 122°22'0 0.0
2017-May-14 23:21N 37°55' W 122°22'0 0.0
2017-May-14 22:57N 37°55' W 122°22'0 0.0
2017-May-14 22:30N 37°55' W 122°22'0 0.0
2017-May-14 21:59N 37°55' W 122°22'0 0.0
2017-May-14 21:29N 37°55' W 122°22'0 0.0
2017-May-14 21:00N 37°55' W 122°22'2 3.2
2017-May-14 20:30N 37°54' W 122°24'2 3.0
2017-May-14 20:00N 37°54' W 122°22'3 5.2
2017-May-14 19:30N 37°53' W 122°25'4 8.9
2017-May-14 19:00N 37°49' W 122°22'1 2.9
2017-May-14 18:30N 37°48' W 122°21'0 0.0
2017-May-14 18:00N 37°48' W 122°21'0 0.0
2017-May-14 17:31N 37°48' W 122°21'0 0.0
2017-May-14 17:01N 37°48' W 122°21'0 0.1
2017-May-14 16:30N 37°48' W 122°21'0 0.1
2017-May-14 16:01N 37°48' W 122°21'0 0.0
2017-May-14 15:31N 37°48' W 122°21'1 1.6
2017-May-14 15:00N 37°48' W 122°20'1 1.5
2017-May-14 14:31N 37°48' W 122°19'0 0.2
2017-May-14 13:30N 37°48' W 122°18'2 5.0
2017-May-14 13:01N 37°48' W 122°22'1 1.6
2017-May-14 12:30N 37°48' W 122°21'0 0.0
2017-May-14 12:00N 37°48' W 122°21'0 0.0
2017-May-14 11:30N 37°48' W 122°21'0 0.0
2017-May-14 11:00N 37°48' W 122°21'0 0.0
2017-May-14 10:30N 37°48' W 122°21'0 0.0
2017-May-14 10:01N 37°48' W 122°21'0 0.0
2017-May-14 09:30N 37°48' W 122°21'0 0.0
2017-May-14 09:00N 37°48' W 122°21'0 0.0
2017-May-14 08:31N 37°48' W 122°21'5 9.5
2017-May-14 08:00N 37°52' W 122°24'2 4.4
2017-May-14 07:31N 37°54' W 122°24'2 3.4
2017-May-14 07:01N 37°55' W 122°22'0 0.2
2017-May-14 06:30N 37°55' W 122°22'2 3.7
2017-May-14 06:00N 37°54' W 122°24'2 3.2
2017-May-14 05:30N 37°53' W 122°25'2 4.9
2017-May-14 05:00N 37°51' W 122°23'4 7.2
2017-May-14 04:30N 37°49' W 122°19'0 0.9
2017-May-14 04:00N 37°49' W 122°19'0 0.0
2017-May-14 03:30N 37°49' W 122°19'0 0.0
2017-May-14 03:00N 37°49' W 122°19'0 0.0
2017-May-14 02:30N 37°49' W 122°19'0 0.0
2017-May-14 02:00N 37°49' W 122°19'0 0.0
2017-May-14 01:30N 37°49' W 122°19'0 0.0
2017-May-14 01:00N 37°49' W 122°19'0 0.0
2017-May-14 00:30N 37°49' W 122°19'0 0.0
2017-May-14 00:00N 37°49' W 122°19'0 0.0
2017-May-13 23:30N 37°49' W 122°19'0 0.0
2017-May-13 23:00N 37°49' W 122°19'0 0.0
2017-May-13 22:30N 37°49' W 122°19'0 0.0
2017-May-13 22:00N 37°49' W 122°19'0 0.0
2017-May-13 21:30N 37°49' W 122°19'0 0.0
2017-May-13 21:00N 37°49' W 122°19'0 0.0
2017-May-13 20:30N 37°49' W 122°19'0 0.0
2017-May-13 20:00N 37°49' W 122°19'0 0.0
2017-May-13 19:30N 37°49' W 122°19'0 0.0
2017-May-13 19:00N 37°49' W 122°19'0 0.0
2017-May-13 18:30N 37°49' W 122°19'0 0.0
2017-May-13 18:00N 37°49' W 122°19'0 0.0
2017-May-13 17:30N 37°49' W 122°19'0 0.0
2017-May-13 17:00N 37°49' W 122°19'1 2.3
2017-May-13 16:30N 37°49' W 122°20'0 0.7
2017-May-13 16:01N 37°49' W 122°20'1 2.6
2017-May-13 15:30N 37°48' W 122°19'1 1.5
2017-May-13 15:00N 37°48' W 122°18'0 0.5
2017-May-13 14:31N 37°48' W 122°18'3 3.2
2017-May-13 13:31N 37°48' W 122°22'3 5.4
2017-May-13 13:00N 37°49' W 122°19'0 0.0
2017-May-13 12:30N 37°49' W 122°19'  
Track history (hours):
 
Tides and Currents Weather Stations Pressure Air Temp Water Temp Dewpoint Dewpoint Depression Visibility Wind Speed Wind Dir Waves Ship Positions

Patricia Ann

Owner: AmNav Maritime Services, Oakland, CA. More information available from US FCC via Universal Licensing System and Coast Guard Vessel Documentation Center.

Last reported at 2017-May-23 12:30 UTC. Time now 2017-May-23 12:46 UTC.
Position N 37°48' W 122°21'.

Length 24 m; draft 4.9 m.

Type: Tug. MMSI: 367330510.

Date/timePositionNaut miles runAvg speedWind from/ knotsBaromVisibWave heightAir tempDewpointWater temp
2017-May-23 12:30N 37°48' W 122°21'2 4.1
2017-May-23 12:00N 37°48' W 122°19'0 0.1
2017-May-23 11:30N 37°48' W 122°19'0 0.5
2017-May-23 11:00N 37°48' W 122°19'1 1.6
2017-May-23 10:30N 37°48' W 122°18'0 0.1
2017-May-23 10:01N 37°48' W 122°18'0 0.0
2017-May-23 09:30N 37°48' W 122°18'0 0.1
2017-May-23 09:00N 37°48' W 122°18'0 0.0
2017-May-23 08:30N 37°48' W 122°18'2 3.9
2017-May-23 08:00N 37°49' W 122°20'1 2.1
2017-May-23 07:30N 37°49' W 122°19'0 0.0
2017-May-23 07:00N 37°49' W 122°19'0 0.0
2017-May-23 06:30N 37°49' W 122°19'0 0.0
2017-May-23 06:00N 37°49' W 122°19'0 0.0
2017-May-23 05:30N 37°49' W 122°19'0 0.0
2017-May-23 05:00N 37°49' W 122°19'0 0.0
2017-May-23 04:30N 37°49' W 122°19'0 0.0
2017-May-23 04:00N 37°49' W 122°19'0 0.0
2017-May-23 03:30N 37°49' W 122°19'0 0.0
2017-May-23 03:00N 37°49' W 122°19'0 0.0
2017-May-23 02:30N 37°49' W 122°19'0 0.0
2017-May-23 02:00N 37°49' W 122°19'0 0.0
2017-May-23 01:30N 37°49' W 122°19'0 0.0
2017-May-23 01:00N 37°49' W 122°19'1 1.1
2017-May-23 00:30N 37°49' W 122°19'1 2.6
2017-May-23 00:00N 37°48' W 122°19'0 0.2
2017-May-22 23:29N 37°48' W 122°19'1 2.3
2017-May-22 23:00N 37°48' W 122°17'2 3.6
2017-May-22 22:30N 37°48' W 122°20'2 4.6
2017-May-22 22:00N 37°48' W 122°22'3 6.1
2017-May-22 21:30N 37°49' W 122°19'0 0.0
2017-May-22 21:00N 37°49' W 122°19'0 0.0
2017-May-22 20:30N 37°49' W 122°19'0 0.0
2017-May-22 20:00N 37°49' W 122°19'0 0.0
2017-May-22 19:30N 37°49' W 122°19'0 0.0
2017-May-22 19:00N 37°49' W 122°19'0 0.4
2017-May-22 18:30N 37°49' W 122°19'3 6.6
2017-May-22 18:00N 37°51' W 122°23'4 8.6
2017-May-22 17:29N 37°55' W 122°25'1 0.7
2017-May-22 16:28N 37°55' W 122°25'2 4.6
2017-May-22 16:00N 37°53' W 122°25'4 7.5
2017-May-22 15:30N 37°50' W 122°22'2 4.9
2017-May-22 15:00N 37°48' W 122°21'0 0.0
2017-May-22 14:00N 37°48' W 122°21'0 0.0
2017-May-22 13:30N 37°48' W 122°21'0 0.5
2017-May-22 13:00N 37°49' W 122°20'1 1.5
2017-May-22 12:30N 37°49' W 122°19'2 3.9
2017-May-22 12:00N 37°48' W 122°22'3 5.0
2017-May-22 11:30N 37°49' W 122°19'0 0.3
2017-May-22 11:00N 37°49' W 122°19'0 0.0
2017-May-22 10:30N 37°49' W 122°19'0 0.0
2017-May-22 10:00N 37°49' W 122°19'0 0.0
2017-May-22 09:30N 37°49' W 122°19'0 0.0
2017-May-22 09:00N 37°49' W 122°19'0 0.0
2017-May-22 08:30N 37°49' W 122°19'0 0.0
2017-May-22 08:00N 37°49' W 122°19'0 0.0
2017-May-22 07:30N 37°49' W 122°19'0 0.0
2017-May-22 07:00N 37°49' W 122°19'0 0.0
2017-May-22 06:30N 37°49' W 122°19'0 0.0
2017-May-22 06:00N 37°49' W 122°19'0 0.0
2017-May-22 05:30N 37°49' W 122°19'0 0.0
2017-May-22 05:00N 37°49' W 122°19'0 0.0
2017-May-22 04:30N 37°49' W 122°19'0 0.0
2017-May-22 04:00N 37°49' W 122°19'0 0.0
2017-May-22 03:30N 37°49' W 122°19'0 0.0
2017-May-22 03:00N 37°49' W 122°19'0 0.0
2017-May-22 02:30N 37°49' W 122°19'0 0.0
2017-May-22 02:00N 37°49' W 122°19'0 0.0
2017-May-22 01:30N 37°49' W 122°19'0 0.0
2017-May-22 01:00N 37°49' W 122°19'0 0.0
2017-May-22 00:30N 37°49' W 122°19'0 0.0
2017-May-22 00:00N 37°49' W 122°19'0 0.0
2017-May-21 23:30N 37°49' W 122°19'0 0.0
2017-May-21 23:00N 37°49' W 122°19'0 0.0
2017-May-21 22:30N 37°49' W 122°19'0 0.0
2017-May-21 22:00N 37°49' W 122°19'0 0.0
2017-May-21 21:30N 37°49' W 122°19'0 0.0
2017-May-21 21:00N 37°49' W 122°19'0 0.0
2017-May-21 20:30N 37°49' W 122°19'0 0.0
2017-May-21 20:00N 37°49' W 122°19'0 0.0
2017-May-21 19:30N 37°49' W 122°19'0 0.0
2017-May-21 19:00N 37°49' W 122°19'0 0.0
2017-May-21 18:30N 37°49' W 122°19'0 0.0
2017-May-21 18:00N 37°49' W 122°19'0 0.0
2017-May-21 17:30N 37°49' W 122°19'0 0.0
2017-May-21 17:00N 37°49' W 122°19'0 0.0
2017-May-21 16:30N 37°49' W 122°19'0 0.0
2017-May-21 16:00N 37°49' W 122°19'0 0.0
2017-May-21 15:30N 37°49' W 122°19'0 0.0
2017-May-21 15:00N 37°49' W 122°19'0 0.0
2017-May-21 14:30N 37°49' W 122°19'0 0.0
2017-May-21 13:30N 37°49' W 122°19'0 0.0
2017-May-21 13:00N 37°49' W 122°19'0 0.0
2017-May-21 12:30N 37°49' W 122°19'0 0.0
2017-May-21 12:00N 37°49' W 122°19'0 0.0
2017-May-21 11:30N 37°49' W 122°19'0 0.7
2017-May-21 11:00N 37°49' W 122°19'2 3.1
2017-May-21 10:30N 37°48' W 122°19'1 1.9
2017-May-21 10:00N 37°48' W 122°17'1 2.2
2017-May-21 09:30N 37°48' W 122°19'0 0.0
2017-May-21 09:00N 37°48' W 122°19'0 0.0
2017-May-21 08:30N 37°48' W 122°19'2 3.3
2017-May-21 08:00N 37°49' W 122°19'0 0.0
2017-May-21 07:30N 37°49' W 122°19'0 0.0
2017-May-21 07:00N 37°49' W 122°19'0 0.0
2017-May-21 06:30N 37°49' W 122°19'0 0.0
2017-May-21 06:00N 37°49' W 122°19'0 0.0
2017-May-21 05:30N 37°49' W 122°19'0 0.0
2017-May-21 05:00N 37°49' W 122°19'0 0.0
2017-May-21 04:30N 37°49' W 122°19'0 0.0
2017-May-21 04:00N 37°49' W 122°19'0 0.0
2017-May-21 03:30N 37°49' W 122°19'0 0.0
2017-May-21 03:00N 37°49' W 122°19'4 7.5
2017-May-21 02:30N 37°51' W 122°23'5 9.2
2017-May-21 02:00N 37°55' W 122°25'3 4.7
2017-May-21 01:27N 37°58' W 122°26'511.1
2017-May-21 01:00N 37°53' W 122°25'5 9.2
2017-May-21 00:30N 37°49' W 122°21'2 4.3
2017-May-21 00:00N 37°49' W 122°19'0 0.0
2017-May-20 23:30N 37°49' W 122°19'0 0.0
2017-May-20 23:00N 37°49' W 122°19'0 0.0
2017-May-20 22:30N 37°49' W 122°19'0 0.0
2017-May-20 22:00N 37°49' W 122°19'0 0.0
2017-May-20 21:30N 37°49' W 122°19'0 0.0
2017-May-20 21:00N 37°49' W 122°19'0 0.0
2017-May-20 20:30N 37°49' W 122°19'0 0.0
2017-May-20 20:00N 37°49' W 122°19'0 0.0
2017-May-20 19:30N 37°49' W 122°19'0 0.0
2017-May-20 19:00N 37°49' W 122°19'0 0.0
2017-May-20 18:30N 37°49' W 122°19'0 0.0
2017-May-20 18:00N 37°49' W 122°19'0 0.0
2017-May-20 17:30N 37°49' W 122°19'0 0.0
2017-May-20 17:00N 37°49' W 122°19'2 3.2
2017-May-20 16:30N 37°48' W 122°20'0 1.0
2017-May-20 16:00N 37°48' W 122°19'1 1.2
2017-May-20 15:31N 37°48' W 122°18'1 1.4
2017-May-20 15:00N 37°48' W 122°17'1 2.5
2017-May-20 14:30N 37°48' W 122°19'0 0.2
2017-May-20 13:30N 37°48' W 122°19'2 4.5
2017-May-20 13:00N 37°48' W 122°21'1 1.4
2017-May-20 12:30N 37°48' W 122°21'1 1.7
2017-May-20 12:00N 37°49' W 122°20'0 0.1
2017-May-20 11:30N 37°49' W 122°20'0 0.0
2017-May-20 11:00N 37°49' W 122°20'0 0.0
2017-May-20 10:30N 37°49' W 122°20'0 0.0
2017-May-20 10:00N 37°49' W 122°20'0 0.8
2017-May-20 09:30N 37°49' W 122°19'1 1.2
2017-May-20 09:00N 37°49' W 122°19'0 0.0
2017-May-20 08:30N 37°49' W 122°19'0 0.0
2017-May-20 08:00N 37°49' W 122°19'0 0.0
2017-May-20 07:30N 37°49' W 122°19'0 0.0
2017-May-20 07:00N 37°49' W 122°19'0 0.0
2017-May-20 06:30N 37°49' W 122°19'0 0.0
2017-May-20 06:00N 37°49' W 122°19'0 0.0
2017-May-20 05:30N 37°49' W 122°19'0 0.0
2017-May-20 05:00N 37°49' W 122°19'0 0.0
2017-May-20 04:30N 37°49' W 122°19'0 0.0
2017-May-20 04:00N 37°49' W 122°19'0 0.0
2017-May-20 03:30N 37°49' W 122°19'0 0.0
2017-May-20 03:00N 37°49' W 122°19'2 3.2
2017-May-20 02:30N 37°48' W 122°19'0 0.6
2017-May-20 02:00N 37°48' W 122°19'1 2.5
2017-May-20 01:31N 37°48' W 122°17'1 1.9
2017-May-20 01:00N 37°48' W 122°18'0 0.9
2017-May-20 00:30N 37°48' W 122°19'0 0.1
2017-May-20 00:01N 37°48' W 122°19'2 3.1
2017-May-19 23:30N 37°49' W 122°19'0 0.0
2017-May-19 23:01N 37°49' W 122°19'0 0.0
2017-May-19 22:30N 37°49' W 122°19'0 0.0
2017-May-19 22:00N 37°49' W 122°19'0 0.0
2017-May-19 21:30N 37°49' W 122°19'0 0.0
2017-May-19 21:00N 37°49' W 122°19'0 0.0
2017-May-19 20:30N 37°49' W 122°19'0 0.0
2017-May-19 20:00N 37°49' W 122°19'0 0.0
2017-May-19 19:31N 37°49' W 122°19'2 3.3
2017-May-19 19:01N 37°48' W 122°19'1 1.5
2017-May-19 18:31N 37°48' W 122°18'0 0.0
2017-May-19 18:01N 37°48' W 122°18'0 0.0
2017-May-19 17:31N 37°48' W 122°18'0 0.1
2017-May-19 17:00N 37°48' W 122°18'0 0.0
2017-May-19 16:30N 37°48' W 122°18'1 3.0
2017-May-19 16:00N 37°48' W 122°20'1 1.8
2017-May-19 15:30N 37°49' W 122°19'0 0.2
2017-May-19 15:00N 37°49' W 122°19'0 0.0
2017-May-19 14:00N 37°49' W 122°19'0 0.5
2017-May-19 13:30N 37°49' W 122°20'0 0.4
2017-May-19 13:00N 37°49' W 122°20'1 2.8
2017-May-19 12:30N 37°48' W 122°21'2 5.0
2017-May-19 12:00N 37°49' W 122°19'0 0.0
2017-May-19 11:30N 37°49' W 122°19'0 0.0
2017-May-19 11:00N 37°49' W 122°19'0 0.0
2017-May-19 10:30N 37°49' W 122°19'0 0.0
2017-May-19 10:00N 37°49' W 122°19'0 0.0
2017-May-19 09:30N 37°49' W 122°19'0 0.0
2017-May-19 09:00N 37°49' W 122°19'0 0.0
2017-May-19 08:30N 37°49' W 122°19'0 0.0
2017-May-19 08:00N 37°49' W 122°19'0 0.0
2017-May-19 07:30N 37°49' W 122°19'0 0.0
2017-May-19 07:00N 37°49' W 122°19'0 0.0
2017-May-19 06:30N 37°49' W 122°19'0 0.0
2017-May-19 06:00N 37°49' W 122°19'0 0.0
2017-May-19 05:30N 37°49' W 122°19'0 0.0
2017-May-19 05:00N 37°49' W 122°19'0 0.0
2017-May-19 04:30N 37°49' W 122°19'0 0.0
2017-May-19 04:00N 37°49' W 122°19'0 0.0
2017-May-19 03:30N 37°49' W 122°19'0 0.0
2017-May-19 03:00N 37°49' W 122°19'0 0.0
2017-May-19 02:30N 37°49' W 122°19'0 0.0
2017-May-19 02:00N 37°49' W 122°19'0 0.0
2017-May-19 01:30N 37°49' W 122°19'0 0.0
2017-May-19 01:00N 37°49' W 122°19'0 0.0
2017-May-19 00:30N 37°49' W 122°19'0 0.0
2017-May-19 00:00N 37°49' W 122°19'2 3.4
2017-May-18 23:30N 37°48' W 122°21'2 3.6
2017-May-18 23:00N 37°48' W 122°18'1 2.0
2017-May-18 22:31N 37°48' W 122°17'1 2.8
2017-May-18 22:00N 37°48' W 122°19'3 5.6
2017-May-18 21:30N 37°48' W 122°22'2 3.4
2017-May-18 21:00N 37°48' W 122°20'1 2.1
2017-May-18 20:30N 37°48' W 122°19'1 3.0
2017-May-18 20:00N 37°48' W 122°21'0 0.4
2017-May-18 19:31N 37°48' W 122°21'0 1.0
2017-May-18 19:00N 37°48' W 122°21'0 0.0
2017-May-18 18:31N 37°48' W 122°21'0 0.0
2017-May-18 18:01N 37°48' W 122°21'0 0.0
2017-May-18 17:30N 37°48' W 122°21'0 0.0
2017-May-18 17:01N 37°48' W 122°21'0 0.1
2017-May-18 16:31N 37°48' W 122°21'3 5.3
2017-May-18 16:01N 37°48' W 122°17'1 2.0
2017-May-18 15:31N 37°48' W 122°19'0 0.2
2017-May-18 15:01N 37°48' W 122°19'1 1.0
2017-May-18 14:01N 37°48' W 122°20'1 1.5
2017-May-18 13:30N 37°49' W 122°20'0 0.5
2017-May-18 13:00N 37°49' W 122°20'2 3.7
2017-May-18 12:31N 37°48' W 122°22'3 5.7
2017-May-18 12:01N 37°49' W 122°19'0 0.0
2017-May-18 11:30N 37°49' W 122°19'0 0.0
2017-May-18 11:00N 37°49' W 122°19'0 0.0
2017-May-18 10:30N 37°49' W 122°19'0 0.0
2017-May-18 10:01N 37°49' W 122°19'0 0.0
2017-May-18 09:31N 37°49' W 122°19'0 0.0
2017-May-18 09:01N 37°49' W 122°19'0 0.0
2017-May-18 08:31N 37°49' W 122°19'0 0.0
2017-May-18 08:01N 37°49' W 122°19'0 0.0
2017-May-18 07:31N 37°49' W 122°19'0 0.0
2017-May-18 07:01N 37°49' W 122°19'0 0.0
2017-May-18 06:31N 37°49' W 122°19'0 0.0
2017-May-18 06:00N 37°49' W 122°19'0 0.0
2017-May-18 05:31N 37°49' W 122°19'0 0.0
2017-May-18 05:00N 37°49' W 122°19'0 0.0
2017-May-18 04:31N 37°49' W 122°19'0 0.0
2017-May-18 04:01N 37°49' W 122°19'0 0.0
2017-May-18 03:31N 37°49' W 122°19'0 0.0
2017-May-18 03:01N 37°49' W 122°19'0 0.0
2017-May-18 02:30N 37°49' W 122°19'0 0.0
2017-May-18 02:00N 37°49' W 122°19'0 0.0
2017-May-18 01:31N 37°49' W 122°19'2 3.3
2017-May-18 01:01N 37°48' W 122°19'0 0.2
2017-May-18 00:31N 37°48' W 122°19'4 7.5
2017-May-18 00:01N 37°45' W 122°22'0 0.8
2017-May-17 23:31N 37°45' W 122°22'1 2.0
2017-May-17 23:00N 37°46' W 122°22'2 3.8
2017-May-17 22:31N 37°47' W 122°22'3 5.8
2017-May-17 22:00N 37°49' W 122°19'0 0.0
2017-May-17 21:31N 37°49' W 122°19'0 0.0
2017-May-17 21:01N 37°49' W 122°19'0 0.0
2017-May-17 20:31N 37°49' W 122°19'0 0.0
2017-May-17 20:00N 37°49' W 122°19'0 0.0
2017-May-17 19:30N 37°49' W 122°19'0 0.0
2017-May-17 19:01N 37°49' W 122°19'0 0.0
2017-May-17 18:30N 37°49' W 122°19'2 3.6
2017-May-17 18:00N 37°48' W 122°20'1 2.0
2017-May-17 17:31N 37°48' W 122°19'2 3.1
2017-May-17 17:01N 37°48' W 122°17'2 3.3
2017-May-17 16:30N 37°48' W 122°19'2 4.4
2017-May-17 16:01N 37°48' W 122°22'1 2.4
2017-May-17 15:30N 37°48' W 122°21'0 0.0
2017-May-17 15:01N 37°48' W 122°21'1 0.7
2017-May-17 14:00N 37°48' W 122°20'2 3.0
2017-May-17 13:31N 37°48' W 122°18'0 0.8
2017-May-17 13:00N 37°48' W 122°18'3 5.7
2017-May-17 12:31N 37°48' W 122°22'0 0.0
2017-May-17 12:01N 37°48' W 122°22'0 0.4
2017-May-17 11:31N 37°48' W 122°22'3 5.3
2017-May-17 11:01N 37°49' W 122°19'0 0.0
2017-May-17 10:31N 37°49' W 122°19'0 0.0
2017-May-17 10:00N 37°49' W 122°19'0 0.0
2017-May-17 09:31N 37°49' W 122°19'0 0.0
2017-May-17 09:01N 37°49' W 122°19'0 0.0
2017-May-17 08:31N 37°49' W 122°19'0 0.0
2017-May-17 08:01N 37°49' W 122°19'0 0.0
2017-May-17 07:30N 37°49' W 122°19'0 0.0
2017-May-17 07:01N 37°49' W 122°19'0 0.0
2017-May-17 06:31N 37°49' W 122°19'0 0.0
2017-May-17 06:00N 37°49' W 122°19'0 0.0
2017-May-17 05:30N 37°49' W 122°19'0 0.0
2017-May-17 05:01N 37°49' W 122°19'0 0.0
2017-May-17 04:30N 37°49' W 122°19'0 0.0
2017-May-17 04:00N 37°49' W 122°19'0 0.0
2017-May-17 03:30N 37°49' W 122°19'0 0.0
2017-May-17 03:00N 37°49' W 122°19'0 0.0
2017-May-17 02:30N 37°49' W 122°19'0 0.0
2017-May-17 02:00N 37°49' W 122°19'0 0.2
2017-May-17 01:31N 37°49' W 122°19'1 3.0
2017-May-17 01:00N 37°48' W 122°19'1 1.4
2017-May-17 00:30N 37°48' W 122°18'1 1.7
2017-May-17 00:00N 37°48' W 122°17'1 1.2
2017-May-16 23:31N 37°48' W 122°18'3 5.6
2017-May-16 23:01N 37°48' W 122°21'2 4.5
2017-May-16 22:30N 37°49' W 122°19'0 0.0
2017-May-16 22:00N 37°49' W 122°19'0 0.4
2017-May-16 21:30N 37°49' W 122°19'0 0.0
2017-May-16 21:00N 37°49' W 122°19'0 0.0
2017-May-16 20:30N 37°49' W 122°19'0 0.0
2017-May-16 20:00N 37°49' W 122°19'0 0.0
2017-May-16 19:30N 37°49' W 122°19'0 0.0
2017-May-16 19:00N 37°49' W 122°19'0 0.0
2017-May-16 18:30N 37°49' W 122°19'0 0.0
2017-May-16 18:00N 37°49' W 122°19'0 0.0
2017-May-16 17:30N 37°49' W 122°19'0 0.0
2017-May-16 17:00N 37°49' W 122°19'3 5.4
2017-May-16 16:30N 37°47' W 122°21'3 5.4
2017-May-16 16:00N 37°45' W 122°23'1 2.0
2017-May-16 15:31N 37°46' W 122°22'1 2.4
2017-May-16 15:00N 37°47' W 122°22'2 4.2
2017-May-16 14:30N 37°49' W 122°20'0 0.0
2017-May-16 13:30N 37°49' W 122°20'0 0.0
2017-May-16 13:00N 37°49' W 122°20'0 0.0
2017-May-16 12:30N 37°49' W 122°20'0 0.0
2017-May-16 12:00N 37°49' W 122°20'0 0.0
2017-May-16 11:30N 37°49' W 122°20'0 0.0
2017-May-16 11:00N 37°49' W 122°20'1 1.2
2017-May-16 10:30N 37°48' W 122°20'2 3.7
2017-May-16 10:00N 37°48' W 122°18'0 0.2
2017-May-16 09:30N 37°48' W 122°18'0 0.0
2017-May-16 09:01N 37°48' W 122°18'2 3.6
2017-May-16 08:31N 37°49' W 122°19'1 1.4
2017-May-16 08:00N 37°49' W 122°19'0 0.0
2017-May-16 07:30N 37°49' W 122°19'0 0.0
2017-May-16 07:00N 37°49' W 122°19'0 0.0
2017-May-16 06:30N 37°49' W 122°19'0 0.0
2017-May-16 06:00N 37°49' W 122°19'0 0.0
2017-May-16 05:30N 37°49' W 122°19'0 0.0
2017-May-16 05:00N 37°49' W 122°19'0 0.0
2017-May-16 04:30N 37°49' W 122°19'0 0.0
2017-May-16 04:00N 37°49' W 122°19'0 0.0
2017-May-16 03:30N 37°49' W 122°19'0 0.0
2017-May-16 03:00N 37°49' W 122°19'0 0.0
2017-May-16 02:30N 37°49' W 122°19'0 0.0
2017-May-16 02:00N 37°49' W 122°19'0 0.0
2017-May-16 01:30N 37°49' W 122°19'0 0.0
2017-May-16 01:00N 37°49' W 122°19'0 0.0
2017-May-16 00:30N 37°49' W 122°19'1 1.9
2017-May-16 00:00N 37°49' W 122°20'0 0.2
2017-May-15 23:30N 37°49' W 122°20'0 0.2
2017-May-15 23:00N 37°49' W 122°20'1 1.2
2017-May-15 22:30N 37°49' W 122°19'0 0.6
2017-May-15 22:00N 37°49' W 122°19'0 0.0
2017-May-15 21:30N 37°49' W 122°19'0 0.0
2017-May-15 21:00N 37°49' W 122°19'0 0.0
2017-May-15 20:30N 37°49' W 122°19'2 3.9
2017-May-15 20:00N 37°48' W 122°21'5 9.0
2017-May-15 19:30N 37°44' W 122°20'1 1.8
2017-May-15 19:00N 37°43' W 122°21'5 9.9
2017-May-15 18:30N 37°48' W 122°23'4 9.0
2017-May-15 18:00N 37°49' W 122°29'1 2.0
2017-May-15 17:30N 37°48' W 122°30'0 0.5
2017-May-15 17:00N 37°48' W 122°29'4 7.5
2017-May-15 16:30N 37°49' W 122°25'5 9.3
2017-May-15 16:00N 37°49' W 122°19'0 0.0
2017-May-15 15:30N 37°49' W 122°19'0 0.0
2017-May-15 15:00N 37°49' W 122°19'2 1.6
2017-May-15 14:00N 37°48' W 122°19'1 1.3
2017-May-15 13:30N 37°48' W 122°18'1 1.8
2017-May-15 13:00N 37°48' W 122°17'1 2.8
2017-May-15 12:31N 37°48' W 122°19'2 3.5
2017-May-15 12:01N 37°48' W 122°21'1 1.0
2017-May-15 11:30N 37°48' W 122°21'0 0.0
2017-May-15 11:00N 37°48' W 122°21'0 0.0
2017-May-15 10:30N 37°48' W 122°21'0 0.0
2017-May-15 10:00N 37°48' W 122°21'0 0.0
2017-May-15 09:30N 37°48' W 122°21'0 0.0
2017-May-15 09:00N 37°48' W 122°21'0 0.0
2017-May-15 08:30N 37°48' W 122°21'0 0.0
2017-May-15 08:00N 37°48' W 122°21'0 0.0
2017-May-15 07:30N 37°48' W 122°21'0 0.0
2017-May-15 07:00N 37°48' W 122°21'0 0.0
2017-May-15 06:30N 37°48' W 122°21'0 0.0
2017-May-15 06:00N 37°48' W 122°21'0 0.0
2017-May-15 05:30N 37°48' W 122°21'0 0.0
2017-May-15 05:00N 37°48' W 122°21'0 0.0
2017-May-15 04:30N 37°48' W 122°21'0 0.0
2017-May-15 04:00N 37°48' W 122°21'4 8.5
2017-May-15 03:30N 37°52' W 122°24'3 5.3
2017-May-15 03:00N 37°54' W 122°23'1 1.8
2017-May-15 02:30N 37°55' W 122°22'0 0.4
2017-May-15 01:57N 37°55' W 122°22'0 0.6
2017-May-15 01:29N 37°55' W 122°22'0 0.0
2017-May-14 23:21N 37°55' W 122°22'0 0.0
2017-May-14 22:57N 37°55' W 122°22'0 0.0
2017-May-14 22:30N 37°55' W 122°22'0 0.0
2017-May-14 21:59N 37°55' W 122°22'0 0.0
2017-May-14 21:29N 37°55' W 122°22'0 0.0
2017-May-14 21:00N 37°55' W 122°22'2 3.2
2017-May-14 20:30N 37°54' W 122°24'2 3.0
2017-May-14 20:00N 37°54' W 122°22'3 5.2
2017-May-14 19:30N 37°53' W 122°25'4 8.9
2017-May-14 19:00N 37°49' W 122°22'1 2.9
2017-May-14 18:30N 37°48' W 122°21'0 0.0
2017-May-14 18:00N 37°48' W 122°21'0 0.0
2017-May-14 17:31N 37°48' W 122°21'0 0.0
2017-May-14 17:01N 37°48' W 122°21'0 0.1
2017-May-14 16:30N 37°48' W 122°21'0 0.1
2017-May-14 16:01N 37°48' W 122°21'0 0.0
2017-May-14 15:31N 37°48' W 122°21'1 1.6
2017-May-14 15:00N 37°48' W 122°20'1 1.5
2017-May-14 14:31N 37°48' W 122°19'0 0.2
2017-May-14 13:30N 37°48' W 122°18'2 5.0
2017-May-14 13:01N 37°48' W 122°22'1 1.6
2017-May-14 12:30N 37°48' W 122°21'0 0.0
2017-May-14 12:00N 37°48' W 122°21'0 0.0
2017-May-14 11:30N 37°48' W 122°21'0 0.0
2017-May-14 11:00N 37°48' W 122°21'0 0.0
2017-May-14 10:30N 37°48' W 122°21'0 0.0
2017-May-14 10:01N 37°48' W 122°21'0 0.0
2017-May-14 09:30N 37°48' W 122°21'0 0.0
2017-May-14 09:00N 37°48' W 122°21'0 0.0
2017-May-14 08:31N 37°48' W 122°21'5 9.5
2017-May-14 08:00N 37°52' W 122°24'2 4.4
2017-May-14 07:31N 37°54' W 122°24'2 3.4
2017-May-14 07:01N 37°55' W 122°22'0 0.2
2017-May-14 06:30N 37°55' W 122°22'2 3.7
2017-May-14 06:00N 37°54' W 122°24'2 3.2
2017-May-14 05:30N 37°53' W 122°25'2 4.9
2017-May-14 05:00N 37°51' W 122°23'4 7.2
2017-May-14 04:30N 37°49' W 122°19'0 0.9
2017-May-14 04:00N 37°49' W 122°19'0 0.0
2017-May-14 03:30N 37°49' W 122°19'0 0.0
2017-May-14 03:00N 37°49' W 122°19'0 0.0
2017-May-14 02:30N 37°49' W 122°19'0 0.0
2017-May-14 02:00N 37°49' W 122°19'0 0.0
2017-May-14 01:30N 37°49' W 122°19'0 0.0
2017-May-14 01:00N 37°49' W 122°19'0 0.0
2017-May-14 00:30N 37°49' W 122°19'0 0.0
2017-May-14 00:00N 37°49' W 122°19'0 0.0
2017-May-13 23:30N 37°49' W 122°19'0 0.0
2017-May-13 23:00N 37°49' W 122°19'0 0.0
2017-May-13 22:30N 37°49' W 122°19'0 0.0
2017-May-13 22:00N 37°49' W 122°19'0 0.0
2017-May-13 21:30N 37°49' W 122°19'0 0.0
2017-May-13 21:00N 37°49' W 122°19'0 0.0
2017-May-13 20:30N 37°49' W 122°19'0 0.0
2017-May-13 20:00N 37°49' W 122°19'0 0.0
2017-May-13 19:30N 37°49' W 122°19'0 0.0
2017-May-13 19:00N 37°49' W 122°19'0 0.0
2017-May-13 18:30N 37°49' W 122°19'0 0.0
2017-May-13 18:00N 37°49' W 122°19'0 0.0
2017-May-13 17:30N 37°49' W 122°19'0 0.0
2017-May-13 17:00N 37°49' W 122°19'1 2.3
2017-May-13 16:30N 37°49' W 122°20'0 0.7
2017-May-13 16:01N 37°49' W 122°20'1 2.6
2017-May-13 15:30N 37°48' W 122°19'1 1.5
2017-May-13 15:00N 37°48' W 122°18'0 0.5
2017-May-13 14:31N 37°48' W 122°18'3 3.2
2017-May-13 13:31N 37°48' W 122°22'3 5.4
2017-May-13 13:00N 37°49' W 122°19'0 0.0
2017-May-13 12:30N 37°49' W 122°19'  

Dump ship's entire track history